Time;durP1;ratioP1;P1;durP2;ratioP2;P2;SDS_P1;SDS_P2;PMS_P1;PMS_P2;Temp;Humidity;BMP_temperature;BMP_pressure;BME280_temperature;BME280_humidity;BME280_pressure;Samples;Min_cycle;Max_cycle;Signal;HPM_P1;HPM_P2
2022/10/26 00:00:42;;;;;;;10.00;5.40;;;;;;;10.55;100.00;101380.91;5094392;28;20097;-35
2022/10/26 00:03:08;;;;;;;5.00;3.90;;;;;;;10.67;100.00;101386.44;5093833;28;20024;-35
2022/10/26 00:05:33;;;;;;;6.30;4.47;;;;;;;10.63;100.00;101387.91;5094539;28;20357;-35
2022/10/26 00:08:00;;;;;;;7.95;4.40;;;;;;;10.61;100.00;101379.19;5095524;28;20508;-35
2022/10/26 00:10:26;;;;;;;7.38;4.53;;;;;;;10.56;100.00;101369.03;5094673;28;20460;-35
2022/10/26 00:12:51;;;;;;;8.20;4.47;;;;;;;10.69;100.00;101378.94;5094611;28;20028;-35
2022/10/26 00:15:18;;;;;;;6.47;4.17;;;;;;;10.70;100.00;101373.31;5094089;28;20035;-35
2022/10/26 00:17:44;;;;;;;6.05;3.88;;;;;;;10.68;100.00;101358.34;5094220;28;20067;-35
2022/10/26 00:20:10;;;;;;;7.10;4.50;;;;;;;10.64;100.00;101349.00;5094279;28;20048;-36
2022/10/26 00:22:36;;;;;;;9.00;4.35;;;;;;;10.61;100.00;101346.75;5094031;28;20116;-35
2022/10/26 00:25:01;;;;;;;7.78;3.83;;;;;;;10.73;100.00;101355.78;5094116;28;20452;-35
2022/10/26 00:27:26;;;;;;;10.20;3.77;;;;;;;10.65;100.00;101337.97;5094436;28;20376;-35
2022/10/26 00:29:52;;;;;;;8.73;4.30;;;;;;;10.72;100.00;101349.56;5094346;28;20024;-35
2022/10/26 00:32:17;;;;;;;5.47;3.93;;;;;;;10.72;100.00;101346.84;5094287;28;20477;-35
2022/10/26 00:34:42;;;;;;;6.97;3.43;;;;;;;10.76;100.00;101339.13;5094004;28;20035;-35
2022/10/26 00:37:08;;;;;;;7.73;3.93;;;;;;;10.76;100.00;101348.06;5094579;28;20028;-35
2022/10/26 00:39:33;;;;;;;8.05;3.97;;;;;;;10.75;100.00;101348.31;5094546;28;20027;-35
2022/10/26 00:41:59;;;;;;;5.63;3.40;;;;;;;10.80;100.00;101345.78;5093748;28;20421;-35
2022/10/26 00:44:43;;;;;;;9.15;4.05;;;;;;;10.80;100.00;101334.94;5094219;28;20453;-35
2022/10/26 00:47:16;;;;;;;7.25;4.10;;;;;;;10.76;100.00;101323.72;5094199;28;20024;-35
2022/10/26 00:49:46;;;;;;;6.13;3.67;;;;;;;10.78;100.00;101326.22;5093671;28;20082;-35
2022/10/26 00:52:12;;;;;;;8.15;4.03;;;;;;;10.76;100.00;101326.44;5093592;28;20038;-35
2022/10/26 00:54:38;;;;;;;9.77;4.13;;;;;;;10.78;100.00;101320.78;5094104;28;20031;-35
2022/10/26 00:57:03;;;;;;;7.30;4.15;;;;;;;10.82;100.00;101341.78;5093901;28;20116;-35
2022/10/26 00:59:30;;;;;;;8.35;4.10;;;;;;;10.83;100.00;101340.75;5093587;28;20028;-35
2022/10/26 01:01:55;;;;;;;;;;;;;;;10.96;100.00;101347.91;5094240;28;20121;-35
2022/10/26 01:04:21;;;;;;;9.10;4.03;;;;;;;10.94;100.00;101350.03;5093139;28;20376;-35
2022/10/26 01:06:47;;;;;;;4.82;3.70;;;;;;;10.99;100.00;101344.78;5093463;28;20375;-35
2022/10/26 01:09:13;;;;;;;7.28;4.10;;;;;;;11.01;100.00;101347.25;5093368;28;20032;-35
2022/10/26 01:11:38;;;;;;;6.88;3.78;;;;;;;11.03;100.00;101346.00;5093322;28;20103;-35
2022/10/26 01:14:08;;;;;;;8.93;4.50;;;;;;;11.01;100.00;101337.25;5092851;28;20031;-35
2022/10/26 01:16:43;;;;;;;7.80;4.40;;;;;;;11.01;100.00;101334.53;5092970;28;20020;-35
2022/10/26 01:19:27;;;;;;;6.20;4.07;;;;;;;11.00;100.00;101329.38;5092926;28;20574;-35
2022/10/26 01:22:05;;;;;;;6.32;3.90;;;;;;;10.94;100.00;101317.56;5093390;28;20035;-35
2022/10/26 01:25:08;;;;;;;8.07;4.15;;;;;;;10.99;100.00;101320.41;5093530;28;20028;-35
2022/10/26 01:27:43;;;;;;;6.70;4.10;;;;;;;10.96;100.00;101314.63;5093511;28;20077;-35
2022/10/26 01:30:47;;;;;;;6.85;4.22;;;;;;;10.94;100.00;101304.03;5092950;28;20032;-35
2022/10/26 01:33:38;;;;;;;5.90;4.10;;;;;;;10.98;100.00;101317.91;5070887;28;20081;-35
2022/10/26 01:36:13;;;;;;;6.28;4.10;;;;;;;10.98;100.00;101317.91;5070587;28;20047;-35
2022/10/26 01:38:46;;;;;;;6.57;4.20;;;;;;;10.97;100.00;101303.56;5070451;28;20119;-35
2022/10/26 01:41:34;;;;;;;9.65;4.30;;;;;;;10.93;100.00;101291.56;5070454;28;20131;-35
2022/10/26 01:44:08;;;;;;;8.63;3.92;;;;;;;11.01;100.00;101299.38;5054127;28;20362;-35
2022/10/26 01:46:42;;;;;;;7.90;4.32;;;;;;;11.02;100.00;101305.59;5070339;28;20036;-35
2022/10/26 01:49:14;;;;;;;7.13;4.15;;;;;;;10.95;100.00;101289.44;5070802;28;20107;-35
2022/10/26 01:51:42;;;;;;;6.43;4.00;;;;;;;10.99;100.00;101295.25;5070242;28;20025;-35
2022/10/26 01:54:07;;;;;;;7.15;3.90;;;;;;;11.00;100.00;101284.19;5070127;28;20493;-35
2022/10/26 01:56:39;;;;;;;9.32;5.00;;;;;;;10.99;100.00;101290.66;5070678;28;20028;-35
2022/10/26 01:59:22;;;;;;;5.78;4.03;;;;;;;11.00;100.00;101286.91;5070452;28;20051;-35
2022/10/26 02:01:48;;;;;;;10.77;4.50;;;;;;;11.03;100.00;101289.16;5070144;28;20386;-35
2022/10/26 02:04:38;;;;;;;8.13;4.20;;;;;;;11.06;100.00;101280.56;5070185;28;20114;-35
2022/10/26 02:07:27;;;;;;;8.73;4.20;;;;;;;11.07;100.00;101274.09;5080573;28;20365;-35
2022/10/26 02:10:13;;;;;;;8.40;4.05;;;;;;;11.02;100.00;101275.84;5092493;28;20029;-35
2022/10/26 02:12:54;;;;;;;8.88;4.53;;;;;;;11.01;100.00;101277.72;5092707;28;20453;-35
2022/10/26 02:15:21;;;;;;;6.38;4.13;;;;;;;11.00;100.00;101280.66;5092968;28;20028;-35
2022/10/26 02:18:39;;;;;;;6.65;3.72;;;;;;;11.02;100.00;101286.66;5092653;28;20028;-35
2022/10/26 02:21:09;;;;;;;11.30;5.40;;;;;;;10.94;100.00;101286.97;5069793;28;20097;-35
2022/10/26 02:23:37;;;;;;;7.40;3.85;;;;;;;10.86;100.00;101268.31;5070492;28;20299;-35
2022/10/26 02:26:06;;;;;;;6.45;3.75;;;;;;;10.90;100.00;101275.75;5072630;28;20029;-35
2022/10/26 02:28:37;;;;;;;5.68;3.58;;;;;;;10.84;100.00;101263.13;5073729;28;20033;-35
2022/10/26 02:31:05;;;;;;;10.65;3.97;;;;;;;10.91;100.00;101277.41;5073670;28;20043;-35
2022/10/26 02:33:37;;;;;;;6.78;3.78;;;;;;;10.86;100.00;101271.84;5074164;28;20090;-35
2022/10/26 02:36:06;;;;;;;8.75;3.63;;;;;;;10.87;100.00;101267.25;5073955;28;20032;-35
2022/10/26 02:38:33;;;;;;;8.05;3.88;;;;;;;10.82;100.00;101251.69;5057360;28;20064;-35
2022/10/26 02:41:01;;;;;;;8.93;3.60;;;;;;;10.92;100.00;101268.22;5074218;28;20029;-35
2022/10/26 02:43:29;;;;;;;6.57;3.63;;;;;;;10.90;100.00;101264.94;5073547;28;20187;-35
2022/10/26 02:46:07;;;;;;;7.70;3.83;;;;;;;10.93;100.00;101259.09;5073354;28;20444;-35
2022/10/26 02:48:32;;;;;;;9.02;3.88;;;;;;;10.90;100.00;101254.09;5073449;28;20042;-35
2022/10/26 02:51:15;;;;;;;7.95;3.95;;;;;;;10.95;100.00;101253.44;5073502;28;20040;-35
2022/10/26 02:53:44;;;;;;;8.52;4.03;;;;;;;10.94;100.00;101249.91;5073548;28;20523;-35
2022/10/26 02:56:17;;;;;;;6.43;3.53;;;;;;;10.94;100.00;101254.50;5083591;28;20123;-35
2022/10/26 02:58:48;;;;;;;10.45;3.85;;;;;;;10.85;100.00;101232.31;5096431;28;20035;-35
2022/10/26 03:01:14;;;;;;;9.77;3.60;;;;;;;10.97;100.00;101252.16;5095381;28;20048;-35
2022/10/26 03:03:39;;;;;;;5.40;3.67;;;;;;;10.96;100.00;101249.69;5096204;28;20040;-35
2022/10/26 03:06:05;;;;;;;7.40;4.00;;;;;;;10.95;100.00;101246.16;5095695;28;20503;-35
2022/10/26 03:08:30;;;;;;;6.13;3.60;;;;;;;10.94;100.00;101246.38;5096057;28;20250;-35
2022/10/26 03:10:56;;;;;;;7.87;4.00;;;;;;;10.93;100.00;101240.16;5095393;28;20375;-35
2022/10/26 03:13:22;;;;;;;7.63;4.25;;;;;;;10.92;100.00;101241.16;5095318;28;20262;-35
2022/10/26 03:15:47;;;;;;;7.47;4.20;;;;;;;10.91;100.00;101239.53;5095572;28;20027;-35
2022/10/26 03:18:12;;;;;;;8.30;4.10;;;;;;;10.94;100.00;101236.38;5095814;28;20139;-35
2022/10/26 03:20:38;;;;;;;7.33;3.80;;;;;;;10.97;100.00;101248.63;5095440;28;20111;-35
2022/10/26 03:23:03;;;;;;;6.50;4.10;;;;;;;10.94;100.00;101244.50;5095431;28;20063;-35
2022/10/26 03:25:28;;;;;;;7.17;3.60;;;;;;;10.96;100.00;101241.56;5095783;28;20085;-35
2022/10/26 03:27:58;;;;;;;5.87;3.70;;;;;;;10.91;100.00;101231.41;5095912;28;20115;-35
2022/10/26 03:30:24;;;;;;;9.32;4.40;;;;;;;10.94;100.00;101240.97;5095430;28;20046;-35
2022/10/26 03:32:49;;;;;;;7.05;3.90;;;;;;;10.99;100.00;101249.25;5095493;28;20043;-35
2022/10/26 03:35:14;;;;;;;10.20;3.80;;;;;;;10.97;100.00;101232.38;5095720;28;20490;-35
2022/10/26 03:37:40;;;;;;;7.55;4.03;;;;;;;11.00;100.00;101238.19;5095688;28;20024;-35
2022/10/26 03:40:06;;;;;;;8.73;4.10;;;;;;;10.95;100.00;101227.22;5095125;28;20027;-35
2022/10/26 03:42:37;;;;;;;8.45;3.50;;;;;;;11.03;100.00;101231.50;5095245;28;20032;-35
2022/10/26 03:45:04;;;;;;;7.20;3.50;;;;;;;11.03;100.00;101240.44;5094723;28;20464;-35
2022/10/26 03:47:29;;;;;;;7.50;3.83;;;;;;;11.05;100.00;101232.09;5095200;28;20030;-35
2022/10/26 03:49:55;;;;;;;6.70;3.80;;;;;;;11.03;100.00;101237.75;5093819;28;20380;-35
2022/10/26 03:52:22;;;;;;;5.32;3.72;;;;;;;11.04;100.00;101233.97;5094938;28;20035;-35
2022/10/26 03:54:48;;;;;;;6.95;3.30;;;;;;;10.98;100.00;101218.66;5095223;28;20111;-35
2022/10/26 03:57:13;;;;;;;11.70;3.55;;;;;;;11.06;100.00;101225.63;5094832;28;20118;-35
2022/10/26 03:59:40;;;;;;;8.43;3.33;;;;;;;11.06;100.00;101231.03;5094609;28;20513;-35
2022/10/26 04:02:05;;;;;;;;;;;;;;;11.07;100.00;101228.09;5095111;28;20050;-35
2022/10/26 04:04:30;;;;;;;6.07;3.00;;;;;;;11.00;100.00;101227.34;5093514;28;20010;-35
2022/10/26 04:06:55;;;;;;;5.90;3.37;;;;;;;10.98;100.00;101234.88;5095024;28;20254;-35
2022/10/26 04:09:21;;;;;;;8.73;3.50;;;;;;;10.96;100.00;101231.56;5094483;28;20039;-35
2022/10/26 04:11:46;;;;;;;7.90;2.80;;;;;;;10.94;100.00;101230.97;5094635;28;20032;-35
2022/10/26 04:14:11;;;;;;;6.73;3.30;;;;;;;10.89;100.00;101227.28;5094672;28;20032;-35
2022/10/26 04:16:37;;;;;;;7.85;3.47;;;;;;;10.96;100.00;101236.16;5094355;28;20024;-35
2022/10/26 04:19:02;;;;;;;6.10;2.93;;;;;;;10.99;100.00;101231.13;5094601;28;20028;-35
2022/10/26 04:21:28;;;;;;;6.57;2.83;;;;;;;10.97;100.00;101238.63;5094713;28;20521;-35
2022/10/26 04:23:53;;;;;;;8.10;3.22;;;;;;;11.00;100.00;101234.66;5093874;28;20111;-35
2022/10/26 04:26:18;;;;;;;6.00;2.50;;;;;;;11.04;100.00;101233.16;5093852;28;20032;-35
2022/10/26 04:28:44;;;;;;;5.87;3.00;;;;;;;11.00;100.00;101231.94;5094851;28;20032;-35
2022/10/26 04:31:09;;;;;;;6.40;2.83;;;;;;;10.92;100.00;101214.13;5094265;28;20028;-35
2022/10/26 04:33:34;;;;;;;6.00;3.30;;;;;;;11.00;100.00;101219.25;5094116;28;20518;-35
2022/10/26 04:36:00;;;;;;;8.23;2.80;;;;;;;10.98;100.00;101213.25;5093700;28;20027;-35
2022/10/26 04:38:25;;;;;;;5.88;2.65;;;;;;;10.94;100.00;101205.78;5093959;28;20055;-35
2022/10/26 04:40:51;;;;;;;6.68;3.03;;;;;;;11.02;100.00;101213.59;5094124;28;20035;-35
2022/10/26 04:43:16;;;;;;;6.43;2.80;;;;;;;11.07;100.00;101219.16;5093721;28;20050;-35
2022/10/26 04:45:41;;;;;;;5.67;2.90;;;;;;;11.07;100.00;101222.69;5093754;28;20069;-35
2022/10/26 04:48:10;;;;;;;7.23;3.30;;;;;;;11.09;100.00;101220.59;5093051;28;20024;-35
2022/10/26 04:50:36;;;;;;;4.10;2.78;;;;;;;11.06;100.00;101206.69;5093674;28;20024;-35
2022/10/26 04:53:02;;;;;;;7.78;3.35;;;;;;;11.10;100.00;101210.59;5093372;28;20169;-35
2022/10/26 04:55:28;;;;;;;8.30;3.17;;;;;;;11.13;100.00;101217.47;5093536;28;20089;-35
2022/10/26 04:57:53;;;;;;;4.73;2.70;;;;;;;11.17;100.00;101215.94;5093666;28;20472;-35
2022/10/26 05:00:19;;;;;;;7.33;3.50;;;;;;;11.15;100.00;101216.16;5093522;28;20105;-35
2022/10/26 05:02:44;;;;;;;9.50;3.00;;;;;;;11.19;100.00;101220.06;5093738;28;20087;-35
2022/10/26 05:05:10;;;;;;;5.13;2.53;;;;;;;11.20;100.00;101220.91;5093926;28;20115;-36
2022/10/26 05:07:35;;;;;;;6.85;3.22;;;;;;;11.23;100.00;101224.00;5093958;28;20491;-35
2022/10/26 05:10:01;;;;;;;7.22;3.58;;;;;;;11.16;100.00;101215.09;5093099;28;20145;-35
2022/10/26 05:12:26;;;;;;;5.90;3.27;;;;;;;11.24;100.00;101227.53;5093597;28;20109;-35
2022/10/26 05:14:51;;;;;;;11.93;3.70;;;;;;;11.26;100.00;101225.41;5093269;28;20058;-35
2022/10/26 05:17:16;;;;;;;5.37;2.73;;;;;;;11.22;100.00;101218.78;5093651;28;20024;-35
2022/10/26 05:19:42;;;;;;;7.03;3.40;;;;;;;11.27;100.00;101224.34;5093983;28;20429;-35
2022/10/26 05:22:07;;;;;;;8.37;3.40;;;;;;;11.23;100.00;101215.88;5092400;28;20024;-35
2022/10/26 05:24:33;;;;;;;8.30;3.35;;;;;;;11.25;100.00;101218.34;5092893;28;20055;-35
2022/10/26 05:26:58;;;;;;;7.03;3.03;;;;;;;11.29;100.00;101233.09;5092930;28;20081;-35
2022/10/26 05:29:24;;;;;;;5.78;3.35;;;;;;;11.30;100.00;101232.84;5093215;28;20032;-35
2022/10/26 05:31:49;;;;;;;9.50;3.87;;;;;;;11.32;100.00;101229.91;5093315;28;20039;-35
2022/10/26 05:34:14;;;;;;;7.07;3.23;;;;;;;11.28;100.00;101231.44;5093406;28;20059;-35
2022/10/26 05:36:40;;;;;;;6.57;3.33;;;;;;;11.23;100.00;101221.28;5093025;28;20042;-35
2022/10/26 05:39:05;;;;;;;5.47;3.00;;;;;;;11.29;100.00;101235.78;5093732;28;20262;-35
2022/10/26 05:41:30;;;;;;;7.07;3.03;;;;;;;11.24;100.00;101222.09;5093007;28;20029;-35
2022/10/26 05:43:56;;;;;;;6.37;2.90;;;;;;;11.30;100.00;101234.72;5093182;28;20032;-35
2022/10/26 05:46:21;;;;;;;7.50;3.88;;;;;;;11.25;100.00;101227.28;5093373;28;20024;-35
2022/10/26 05:48:46;;;;;;;5.27;2.80;;;;;;;11.26;100.00;101234.34;5093475;28;20093;-35
2022/10/26 05:51:13;;;;;;;5.73;2.70;;;;;;;11.27;100.00;101243.28;5092219;28;20126;-35
2022/10/26 05:53:38;;;;;;;7.65;3.30;;;;;;;11.22;100.00;101237.72;5092525;28;20028;-35
2022/10/26 05:56:17;;;;;;;5.37;3.50;;;;;;;11.21;100.00;101241.50;5092507;28;20035;-35
2022/10/26 05:58:43;;;;;;;4.97;2.78;;;;;;;11.19;100.00;101243.63;5093450;28;20274;-35
2022/10/26 06:01:22;;;;;;;6.40;2.88;;;;;;;11.18;100.00;101250.09;5095688;28;20028;-35
2022/10/26 06:04:06;;;;;;;7.43;3.10;;;;;;;11.21;100.00;101250.44;5097220;28;20054;-35
2022/10/26 06:06:38;;;;;;;7.28;3.33;;;;;;;11.23;100.00;101255.66;5097273;28;20115;-35
2022/10/26 06:09:04;;;;;;;6.32;2.75;;;;;;;11.27;100.00;101262.25;5096695;28;20032;-35
2022/10/26 06:11:29;;;;;;;4.53;2.92;;;;;;;11.28;100.00;101262.03;5096687;28;20318;-35
2022/10/26 06:13:59;;;;;;;7.00;3.17;;;;;;;11.29;100.00;101257.44;5096300;28;20036;-35
2022/10/26 06:17:04;;;;;;;6.47;3.20;;;;;;;11.32;100.00;101254.28;5096555;28;20035;-35
2022/10/26 06:19:45;;;;;;;7.07;3.53;;;;;;;11.25;100.00;101246.22;5097274;28;20371;-35
2022/10/26 06:22:25;;;;;;;8.70;3.30;;;;;;;11.34;100.00;101253.00;5096895;28;20032;-35
2022/10/26 06:25:08;;;;;;;6.40;3.15;;;;;;;11.31;100.00;101255.34;5096323;28;20030;-35
2022/10/26 06:28:02;;;;;;;5.07;2.97;;;;;;;11.39;100.00;101263.16;5096121;28;20103;-35
2022/10/26 06:30:27;;;;;;;5.85;3.20;;;;;;;11.37;100.00;101253.59;5097284;28;20036;-35
2022/10/26 06:32:54;;;;;;;6.88;3.40;;;;;;;11.39;100.00;101263.16;5096632;28;20032;-35
2022/10/26 06:35:32;;;;;;;6.88;3.17;;;;;;;11.40;100.00;101256.69;5096525;28;20413;-35
2022/10/26 06:38:02;;;;;;;6.15;3.35;;;;;;;11.34;100.00;101247.59;5096988;28;20036;-35
2022/10/26 06:40:31;;;;;;;5.53;3.10;;;;;;;11.31;100.00;101249.91;5096606;28;20024;-35
2022/10/26 06:42:57;;;;;;;8.88;3.80;;;;;;;11.37;100.00;101259.88;5096078;28;20082;-35
2022/10/26 06:45:22;;;;;;;8.55;3.80;;;;;;;11.38;100.00;101250.69;5097094;28;20047;-35
2022/10/26 06:48:06;;;;;;;6.15;3.17;;;;;;;11.37;100.00;101249.03;5096789;28;20028;-35
2022/10/26 06:50:41;;;;;;;6.85;3.35;;;;;;;11.39;100.00;101246.09;5096465;28;20032;-35
2022/10/26 06:53:29;;;;;;;7.50;3.55;;;;;;;11.41;100.00;101254.81;5096757;28;20431;-35
2022/10/26 06:55:57;;;;;;;6.20;3.45;;;;;;;11.42;100.00;101249.19;5096470;28;20423;-36
2022/10/26 06:58:27;;;;;;;9.20;3.83;;;;;;;11.43;100.00;101244.59;5096406;28;20039;-36
2022/10/26 07:00:53;;;;;;;7.53;3.42;;;;;;;11.37;100.00;101232.78;5096091;28;20025;-35
2022/10/26 07:03:19;;;;;;;8.65;4.18;;;;;;;11.47;100.00;101254.75;5095983;28;20044;-35
2022/10/26 07:05:45;;;;;;;7.25;3.40;;;;;;;11.49;100.00;101254.50;5095025;28;20081;-35
2022/10/26 07:08:11;;;;;;;8.32;3.80;;;;;;;11.49;100.00;101247.22;5094859;28;20027;-35
2022/10/26 07:10:37;;;;;;;;;;;;;;;11.55;100.00;101248.19;5094565;28;20111;-35
2022/10/26 07:13:09;;;;;;;6.95;3.47;;;;;;;11.52;100.00;101254.06;5095092;28;19908;-35
2022/10/26 07:15:36;;;;;;;7.60;3.85;;;;;;;11.53;100.00;101259.25;5094648;28;20039;-35
2022/10/26 07:18:06;;;;;;;6.90;2.97;;;;;;;11.52;100.00;101263.00;5094849;28;20024;-35
2022/10/26 07:20:36;;;;;;;5.40;2.90;;;;;;;11.53;100.00;101280.91;5094385;28;20028;-35
2022/10/26 07:23:02;;;;;;;6.72;3.38;;;;;;;11.60;100.00;101280.81;5094580;28;20024;-34
2022/10/26 07:25:27;;;;;;;7.03;3.72;;;;;;;11.60;100.00;101270.81;5094314;28;20425;-34
2022/10/26 07:27:59;;;;;;;7.50;3.60;;;;;;;11.62;100.00;101276.03;5094970;28;20390;-34
2022/10/26 07:30:28;;;;;;;8.50;4.00;;;;;;;11.74;100.00;101285.03;5095121;28;20036;-34
2022/10/26 07:33:06;;;;;;;5.68;3.50;;;;;;;11.82;100.00;101292.06;5094751;28;20047;-34
2022/10/26 07:35:32;;;;;;;5.68;3.47;;;;;;;11.89;100.00;101298.19;5094264;28;20061;-35
2022/10/26 07:37:59;;;;;;;7.70;4.07;;;;;;;11.93;100.00;101293.97;5094114;28;20486;-34
2022/10/26 07:40:24;;;;;;;;;;;;;;;12.01;100.00;101290.13;5094567;28;20133;-34
2022/10/26 07:42:50;;;;;;;13.93;4.40;;;;;;;11.98;100.00;101274.31;5094839;28;20355;-35
2022/10/26 07:45:15;;;;;;;6.07;3.20;;;;;;;12.07;100.00;101290.03;5093914;28;20035;-34
2022/10/26 07:47:41;;;;;;;7.07;3.33;;;;;;;12.16;100.00;101295.16;5093890;28;20024;-35
2022/10/26 07:50:07;;;;;;;8.27;3.50;;;;;;;12.22;100.00;101295.03;5093902;28;20522;-35
2022/10/26 07:52:34;;;;;;;7.07;3.38;;;;;;;12.30;100.00;101305.56;5094623;28;20165;-35
2022/10/26 07:55:00;;;;;;;9.45;3.28;;;;;;;12.41;100.00;101314.78;5093675;28;20103;-35
2022/10/26 07:57:25;;;;;;;5.07;2.80;;;;;;;12.56;100.00;101327.91;5094489;28;20055;-35
2022/10/26 07:59:50;;;;;;;7.83;2.90;;;;;;;12.66;100.00;101327.34;5093984;28;20024;-35
2022/10/26 08:02:16;;;;;;;7.20;3.00;;;;;;;12.71;100.00;101324.75;5051955;28;1210879;-35
2022/10/26 08:04:41;;;;;;;6.93;2.93;;;;;;;12.71;100.00;101322.88;5094756;28;20491;-35
2022/10/26 08:07:06;;;;;;;8.53;3.10;;;;;;;12.66;100.00;101311.06;5095824;28;20081;-35
2022/10/26 08:09:32;;;;;;;7.85;3.47;;;;;;;12.79;100.00;101327.16;5094726;28;20039;-35
2022/10/26 08:11:57;;;;;;;5.23;2.93;;;;;;;12.89;100.00;101332.81;5095407;28;20116;-35
2022/10/26 08:14:22;;;;;;;7.57;3.00;;;;;;;12.89;100.00;101317.34;5094636;28;20086;-35
2022/10/26 08:16:51;;;;;;;7.73;3.10;;;;;;;13.10;100.00;101328.69;5095217;28;20039;-35
2022/10/26 08:19:16;;;;;;;6.78;2.70;;;;;;;13.27;100.00;101332.38;5094011;28;20317;-35
2022/10/26 08:21:42;;;;;;;8.05;3.08;;;;;;;13.36;100.00;101333.66;5094927;28;20039;-35
2022/10/26 08:24:07;;;;;;;6.63;2.70;;;;;;;13.40;100.00;101317.72;5094245;28;20032;-35
2022/10/26 08:26:32;;;;;;;5.93;2.83;;;;;;;13.47;100.00;101318.44;5094460;28;20292;-35
2022/10/26 08:28:58;;;;;;;6.85;2.42;;;;;;;13.57;100.00;101334.97;5094421;28;20365;-35
2022/10/26 08:31:23;;;;;;;6.90;2.50;;;;;;;13.51;100.00;101322.31;5094432;28;20036;-35
2022/10/26 08:33:49;;;;;;;3.78;2.15;;;;;;;13.63;100.00;101327.75;5094764;28;20520;-35
2022/10/26 08:36:18;;;;;;;5.50;2.70;;;;;;;13.65;100.00;101331.84;5094531;28;20031;-35
2022/10/26 08:38:46;;;;;;;6.60;2.33;;;;;;;13.80;100.00;101341.41;5095054;28;20027;-36
2022/10/26 08:41:12;;;;;;;3.92;2.05;;;;;;;13.81;100.00;101341.19;5094262;28;20028;-35
2022/10/26 08:43:54;;;;;;;4.78;2.50;;;;;;;13.90;100.00;101328.84;5094314;28;20084;-35
2022/10/26 08:46:35;;;;;;;5.03;2.05;;;;;;;14.05;100.00;101343.81;5094383;28;20496;-35
2022/10/26 08:49:19;;;;;;;4.70;2.10;;;;;;;14.15;100.00;101341.28;5094742;28;20039;-35
2022/10/26 08:51:47;;;;;;;4.30;2.17;;;;;;;14.22;100.00;101330.28;5093498;28;20028;-35
2022/10/26 08:54:18;;;;;;;4.10;2.20;;;;;;;14.38;100.00;101340.34;5093233;28;20357;-36
2022/10/26 08:56:51;;;;;;;7.53;2.28;;;;;;;14.51;100.00;101329.22;5094226;28;20472;-36
2022/10/26 08:59:29;;;;;;;4.57;1.88;;;;;;;14.60;100.00;101330.47;5094113;28;20433;-35
2022/10/26 09:01:55;;;;;;;5.10;2.35;;;;;;;14.74;100.00;101328.25;5094235;28;20748;-36
2022/10/26 09:04:26;;;;;;;9.07;2.75;;;;;;;14.77;100.00;101313.31;5093607;28;20107;-36
2022/10/26 09:07:16;;;;;;;5.00;2.15;;;;;;;14.93;100.00;101309.75;5093180;28;20372;-35
2022/10/26 09:10:16;;;;;;;7.20;2.17;;;;;;;15.01;100.00;101314.78;5094484;28;20400;-35
2022/10/26 09:12:57;;;;;;;5.82;2.20;;;;;;;15.09;100.00;101330.72;5093726;28;20115;-36
2022/10/26 09:15:41;;;;;;;4.18;2.30;;;;;;;15.17;100.00;101332.16;5093806;28;20049;-36
2022/10/26 09:18:13;;;;;;;7.53;2.30;;;;;;;15.23;100.00;101333.91;5094084;28;20024;-36
2022/10/26 09:20:48;;;;;;;4.35;2.15;;;;;;;15.34;100.00;101346.59;5092227;28;20523;-35
2022/10/26 09:23:39;;;;;;;8.25;1.92;;;;;;;15.49;100.00;101356.06;5093941;28;20036;-35
2022/10/26 09:26:13;;;;;;;6.68;2.03;;;;;;;15.59;100.00;101351.59;5071219;28;20051;-35
2022/10/26 09:28:40;;;;;;;4.30;1.98;;;;;;;15.67;100.00;101350.38;5071256;28;20072;-35
2022/10/26 09:31:12;;;;;;;3.28;1.83;;;;;;;15.70;100.00;101353.38;5071333;28;20075;-35
2022/10/26 09:33:39;;;;;;;6.63;1.95;;;;;;;15.84;100.00;101364.75;5071196;28;20028;-35
2022/10/26 09:36:17;;;;;;;5.13;1.83;;;;;;;15.94;100.00;101364.88;5071238;28;20457;-35
2022/10/26 09:38:54;;;;;;;8.63;2.20;;;;;;;16.07;100.00;101373.78;5071408;28;20458;-35
2022/10/26 09:41:23;;;;;;;;;;;;;;;16.20;100.00;101389.72;5071344;28;20152;-35
2022/10/26 09:43:54;;;;;;;4.03;1.95;;;;;;;16.24;100.00;101385.41;5071285;28;19918;-35
2022/10/26 09:46:26;;;;;;;7.68;2.30;;;;;;;16.44;100.00;101399.28;5071086;28;20028;-35
2022/10/26 09:48:56;;;;;;;7.63;2.10;;;;;;;16.44;100.00;101401.19;5070636;28;20028;-35
2022/10/26 09:51:26;;;;;;;4.63;1.90;;;;;;;16.43;98.08;101391.34;5071140;28;20032;-35
2022/10/26 09:53:54;;;;;;;5.63;2.10;;;;;;;16.37;98.62;101389.66;5071259;28;20089;-35
2022/10/26 09:56:21;;;;;;;7.28;2.05;;;;;;;16.43;99.51;101391.34;5070534;28;20549;-35
2022/10/26 09:58:58;;;;;;;5.60;1.80;;;;;;;16.50;98.82;101407.56;5070808;28;20037;-35
2022/10/26 10:01:28;;;;;;;9.45;2.45;;;;;;;16.50;98.27;101405.66;5070649;28;20499;-35
2022/10/26 10:04:12;;;;;;;4.05;1.80;;;;;;;16.56;98.87;101407.34;5089219;28;20052;-35
2022/10/26 10:06:40;;;;;;;7.38;2.13;;;;;;;16.60;98.23;101413.13;5092920;28;20114;-35
2022/10/26 10:09:09;;;;;;;6.47;1.95;;;;;;;16.68;97.81;101418.91;5093602;28;20107;-35
2022/10/26 10:11:59;;;;;;;4.40;1.58;;;;;;;16.65;98.13;101415.91;5093729;28;20402;-35
2022/10/26 10:14:36;;;;;;;3.45;1.83;;;;;;;16.83;98.47;101431.94;5093146;28;20032;-35
2022/10/26 10:17:04;;;;;;;8.02;2.13;;;;;;;16.87;98.04;101433.06;5093060;28;20020;-35
2022/10/26 10:19:34;;;;;;;6.63;1.80;;;;;;;16.95;96.89;101438.06;5092899;28;20428;-35
2022/10/26 10:22:07;;;;;;;6.65;2.47;;;;;;;17.01;97.34;101446.31;5093046;28;20031;-35
2022/10/26 10:24:35;;;;;;;4.72;1.92;;;;;;;17.06;96.42;101452.63;5093173;28;20040;-35
2022/10/26 10:27:16;;;;;;;4.07;2.10;;;;;;;17.13;96.20;101446.94;5092450;28;20024;-35
2022/10/26 10:29:45;;;;;;;6.25;2.00;;;;;;;17.21;96.29;101455.50;5093595;28;20024;-35
2022/10/26 10:32:21;;;;;;;4.45;1.85;;;;;;;17.21;96.01;101462.88;5092698;28;20394;-35
2022/10/26 10:34:48;;;;;;;6.07;1.85;;;;;;;17.18;95.69;101455.22;5092495;28;20024;-35
2022/10/26 10:37:26;;;;;;;5.22;1.80;;;;;;;17.30;96.03;101471.44;5092454;28;20032;-35
2022/10/26 10:39:57;;;;;;;3.63;1.73;;;;;;;17.35;95.09;101466.00;5092948;28;20031;-35
2022/10/26 10:42:29;;;;;;;6.05;1.63;;;;;;;17.43;95.70;101477.28;5092913;28;20032;-35
2022/10/26 10:44:56;;;;;;;7.25;1.95;;;;;;;17.51;95.69;101475.97;5093400;28;20028;-35
2022/10/26 10:47:24;;;;;;;6.07;2.20;;;;;;;17.65;94.79;101476.34;5095907;28;20031;-35
2022/10/26 10:50:00;;;;;;;5.20;1.67;;;;;;;17.70;94.22;101488.13;5096592;28;20039;-35
2022/10/26 10:52:32;;;;;;;4.83;2.00;;;;;;;17.80;94.76;101492.06;5096889;28;20028;-35
2022/10/26 10:55:20;;;;;;;5.70;1.90;;;;;;;17.91;94.48;101491.88;5096331;28;20270;-35
2022/10/26 10:57:55;;;;;;;6.15;1.55;;;;;;;17.98;93.16;101495.19;5096672;28;20024;-35
2022/10/26 11:00:21;;;;;;;4.18;1.55;;;;;;;18.01;91.51;101497.41;5096553;28;20100;-35
2022/10/26 11:02:49;;;;;;;;;;;;;;;18.09;94.25;101504.28;5097051;28;20368;-35
2022/10/26 11:05:35;;;;;;;5.38;1.95;;;;;;;18.11;93.09;101506.78;5096030;28;20287;-35
2022/10/26 11:08:01;;;;;;;8.15;1.77;;;;;;;18.19;93.29;101504.34;5095738;28;20113;-35
2022/10/26 11:10:29;;;;;;;;;;;;;;;18.22;93.40;101514.78;5096314;28;20091;-35
2022/10/26 11:13:12;;;;;;;5.97;1.50;;;;;;;18.08;92.57;101512.78;5096605;28;20002;-35
2022/10/26 11:15:41;;;;;;;5.15;2.03;;;;;;;17.94;92.63;101513.22;5096661;28;20123;-35
2022/10/26 11:18:18;;;;;;;4.50;1.55;;;;;;;17.81;93.90;101507.38;5094268;28;20024;-35
2022/10/26 11:20:59;;;;;;;6.43;1.50;;;;;;;17.83;93.59;101522.47;5095852;28;20217;-35
2022/10/26 11:23:35;;;;;;;4.47;1.63;;;;;;;17.89;93.00;101521.41;5096402;28;20028;-35
2022/10/26 11:26:16;;;;;;;7.57;2.30;;;;;;;17.94;93.85;101526.91;5095924;28;20028;-35
2022/10/26 11:29:14;;;;;;;5.75;2.08;;;;;;;18.00;93.97;101533.25;5096212;28;20056;-35
2022/10/26 11:31:50;;;;;;;3.85;1.75;;;;;;;18.07;93.11;101550.25;5095831;28;20027;-35
2022/10/26 11:34:26;;;;;;;4.43;1.83;;;;;;;18.12;93.43;101544.00;5095531;28;20031;-35